createdAt,value
2022-09-02T00:00:01.756Z,71.09
2022-09-02T00:01:01.743Z,71.30
2022-09-02T00:02:01.898Z,71.20
2022-09-02T00:03:01.916Z,71.00
2022-09-02T00:04:01.711Z,70.79
2022-09-02T00:05:01.706Z,70.79
2022-09-02T00:06:01.696Z,71.00
2022-09-02T00:07:01.712Z,71.00
2022-09-02T00:08:01.687Z,70.89
2022-09-02T00:09:01.665Z,70.89
2022-09-02T00:10:01.641Z,70.89
2022-09-02T00:11:01.634Z,70.79
2022-09-02T00:12:01.644Z,70.79
2022-09-02T00:13:01.630Z,70.59
2022-09-02T00:14:01.632Z,70.59
2022-09-02T00:15:01.600Z,71.00
2022-09-02T00:16:01.598Z,71.09
2022-09-02T00:17:01.692Z,71.33
2022-09-02T00:18:01.570Z,71.44
2022-09-02T00:19:01.553Z,71.33
2022-09-02T00:20:01.554Z,71.44
2022-09-02T00:21:01.549Z,71.44
2022-09-02T00:22:01.541Z,71.64
2022-09-02T00:23:01.563Z,71.94
2022-09-02T00:24:01.501Z,72.08
2022-09-02T00:25:01.496Z,72.28
2022-09-02T00:26:01.512Z,72.38
2022-09-02T00:27:01.517Z,72.68
2022-09-02T00:28:01.455Z,72.68
2022-09-02T00:29:01.486Z,72.78
2022-09-02T00:30:01.451Z,72.68
2022-09-02T00:31:01.434Z,72.38
2022-09-02T00:32:01.526Z,72.28
2022-09-02T00:33:01.407Z,72.58
2022-09-02T00:34:01.394Z,72.58
2022-09-02T00:35:01.383Z,72.58
2022-09-02T00:36:01.370Z,72.48
2022-09-02T00:37:01.425Z,72.58
2022-09-02T00:38:01.372Z,72.68
2022-09-02T00:39:01.341Z,72.68
2022-09-02T00:40:01.335Z,72.48
2022-09-02T00:41:01.327Z,72.58
2022-09-02T00:42:01.346Z,72.48
2022-09-02T00:43:01.299Z,72.04
2022-09-02T00:44:01.294Z,71.94
2022-09-02T00:45:01.285Z,71.73
2022-09-02T00:46:01.425Z,71.64
2022-09-02T00:47:01.306Z,71.53
2022-09-02T00:48:01.242Z,71.73
2022-09-02T00:49:01.240Z,71.64
2022-09-02T00:50:01.228Z,71.33
2022-09-02T00:51:01.222Z,71.53
2022-09-02T00:52:01.232Z,71.64
2022-09-02T00:53:01.199Z,71.53
2022-09-02T00:54:01.184Z,71.73
2022-09-02T00:55:01.184Z,71.73
2022-09-02T00:56:01.166Z,71.64
2022-09-02T00:57:01.209Z,71.44
2022-09-02T00:58:01.149Z,71.44
2022-09-02T00:59:01.146Z,71.53
2022-09-02T01:00:01.141Z,71.64
2022-09-02T01:01:01.217Z,71.73
2022-09-02T01:02:01.327Z,71.73
2022-09-02T01:03:01.116Z,71.64
2022-09-02T01:04:01.129Z,71.53
2022-09-02T01:05:01.094Z,71.64
2022-09-02T01:06:01.074Z,71.53
2022-09-02T01:07:01.076Z,71.23
2022-09-02T01:08:01.046Z,71.23
2022-09-02T01:09:01.032Z,71.20
2022-09-02T01:10:01.061Z,71.09
2022-09-02T01:11:01.009Z,71.09
2022-09-02T01:12:01.026Z,71.00
2022-09-02T01:13:01.076Z,70.79
2022-09-02T01:14:00.978Z,71.00
2022-09-02T01:15:00.974Z,70.89
2022-09-02T01:16:01.022Z,70.89
2022-09-02T01:17:00.968Z,71.00
2022-09-02T01:18:00.939Z,70.89
2022-09-02T01:19:00.936Z,70.69
2022-09-02T01:20:00.940Z,70.89
2022-09-02T01:21:00.907Z,70.89
2022-09-02T01:22:00.918Z,71.09
2022-09-02T01:23:00.963Z,71.09
2022-09-02T01:24:00.872Z,71.00
2022-09-02T01:25:00.860Z,71.09
2022-09-02T01:26:00.869Z,70.89
2022-09-02T01:27:00.867Z,71.03
2022-09-02T01:28:00.827Z,71.13
2022-09-02T01:29:00.825Z,71.13
2022-09-02T01:30:00.812Z,71.13
2022-09-02T01:31:00.798Z,71.23
2022-09-02T01:32:00.879Z,71.13
2022-09-02T01:33:00.803Z,71.13
2022-09-02T01:34:00.763Z,71.09
2022-09-02T01:35:00.764Z,71.03
2022-09-02T01:36:00.751Z,71.03
2022-09-02T01:37:00.768Z,71.13
2022-09-02T01:38:00.734Z,71.03
2022-09-02T01:39:00.720Z,71.23
2022-09-02T01:40:00.721Z,71.64
2022-09-02T01:41:00.699Z,71.88
2022-09-02T01:42:00.717Z,72.08
2022-09-02T01:43:00.683Z,71.88
2022-09-02T01:44:00.668Z,71.97
2022-09-02T01:45:00.663Z,72.08
2022-09-02T01:46:00.904Z,71.97
2022-09-02T01:47:00.679Z,72.17
2022-09-02T01:48:00.625Z,72.28
2022-09-02T01:49:00.617Z,72.17
2022-09-02T01:50:00.611Z,72.38
2022-09-02T01:51:00.650Z,72.28
2022-09-02T01:52:00.590Z,72.17
2022-09-02T01:53:00.572Z,72.17
2022-09-02T01:54:00.580Z,72.48
2022-09-02T01:55:00.554Z,72.58
2022-09-02T01:56:00.611Z,72.58
2022-09-02T01:57:00.536Z,72.48
2022-09-02T01:58:00.516Z,72.48
2022-09-02T01:59:00.533Z,72.48
2022-09-02T02:00:00.496Z,72.61
2022-09-02T02:01:00.526Z,72.72
2022-09-02T02:02:00.564Z,72.68
2022-09-02T02:03:00.468Z,72.58
2022-09-02T02:04:00.448Z,72.82
2022-09-02T02:05:00.451Z,73.02
2022-09-02T02:06:00.473Z,73.02
2022-09-02T02:07:00.425Z,73.02
2022-09-02T02:08:00.415Z,73.12
2022-09-02T02:09:00.411Z,73.12
2022-09-02T02:10:00.405Z,73.12
2022-09-02T02:11:00.410Z,73.02
2022-09-02T02:12:00.367Z,73.12
2022-09-02T02:13:00.367Z,73.02
2022-09-02T02:14:00.350Z,73.12
2022-09-02T02:15:00.341Z,73.12
2022-09-02T02:16:00.438Z,73.02
2022-09-02T02:17:00.339Z,72.92
2022-09-02T02:18:00.319Z,73.12
2022-09-02T02:19:00.305Z,73.12
2022-09-02T02:20:00.327Z,73.12
2022-09-02T02:21:00.324Z,73.12
2022-09-02T02:22:00.265Z,73.22
2022-09-02T02:23:00.262Z,73.33
2022-09-02T02:24:00.291Z,73.53
2022-09-02T02:25:00.233Z,73.22
2022-09-02T02:26:00.250Z,73.09
2022-09-02T02:27:00.255Z,72.89
2022-09-02T02:28:00.211Z,72.78
2022-09-02T02:29:00.194Z,72.78
2022-09-02T02:30:00.206Z,72.58
2022-09-02T02:31:00.282Z,72.48
2022-09-02T02:32:00.157Z,72.48
2022-09-02T02:33:00.159Z,72.48
2022-09-02T02:34:00.151Z,72.48
2022-09-02T02:35:00.205Z,72.68
2022-09-02T02:36:00.143Z,72.89
2022-09-02T02:37:00.115Z,72.89
2022-09-02T02:38:01.063Z,72.78
2022-09-02T02:39:00.086Z,72.99
2022-09-02T02:40:00.208Z,72.89
2022-09-02T02:41:00.074Z,72.89
2022-09-02T02:42:00.099Z,73.09
2022-09-02T02:43:00.116Z,73.09
2022-09-02T02:44:00.072Z,73.22
2022-09-02T02:45:00.045Z,73.43
2022-09-02T02:46:00.027Z,73.43
2022-09-02T02:47:00.093Z,73.63
2022-09-02T02:48:00.006Z,73.73
2022-09-02T02:48:59.990Z,73.93
2022-09-02T02:50:00.016Z,73.97
2022-09-02T02:50:59.974Z,74.48
2022-09-02T02:51:59.952Z,74.58
2022-09-02T02:52:59.958Z,74.58
2022-09-02T02:53:59.921Z,74.48
2022-09-02T02:54:59.936Z,74.78
2022-09-02T02:55:59.899Z,74.88
2022-09-02T02:57:00.733Z,74.98
2022-09-02T02:57:59.882Z,74.88
2022-09-02T02:58:59.877Z,74.98
2022-09-02T02:59:59.874Z,74.98
2022-09-02T03:00:59.847Z,74.98
2022-09-02T03:01:59.937Z,75.09
2022-09-02T03:02:59.890Z,75.09
2022-09-02T03:03:59.811Z,74.88
2022-09-02T03:04:59.832Z,74.88
2022-09-02T03:05:59.790Z,74.98
2022-09-02T03:06:59.840Z,74.98
2022-09-02T03:07:59.784Z,74.78
2022-09-02T03:08:59.761Z,74.68
2022-09-02T03:09:59.770Z,74.58
2022-09-02T03:10:59.744Z,74.48
2022-09-02T03:11:59.748Z,74.48
2022-09-02T03:12:59.748Z,74.48
2022-09-02T03:13:59.712Z,74.58
2022-09-02T03:14:59.717Z,74.48
2022-09-02T03:15:59.754Z,74.38
2022-09-02T03:16:59.677Z,74.38
2022-09-02T03:17:59.670Z,74.27
2022-09-02T03:18:59.656Z,74.48
2022-09-02T03:19:59.719Z,74.34
2022-09-02T03:20:59.636Z,74.44
2022-09-02T03:21:59.631Z,74.34
2022-09-02T03:22:59.621Z,74.34
2022-09-02T03:23:59.636Z,74.34
2022-09-02T03:24:59.607Z,74.34
2022-09-02T03:25:59.628Z,74.14
2022-09-02T03:26:59.583Z,74.24
2022-09-02T03:27:59.570Z,74.04
2022-09-02T03:28:59.600Z,74.04
2022-09-02T03:29:59.601Z,73.93
2022-09-02T03:30:59.566Z,73.93
2022-09-02T03:31:59.547Z,74.04
2022-09-02T03:33:03.788Z,74.14
2022-09-02T03:33:59.506Z,74.24
2022-09-02T03:34:59.528Z,74.14
2022-09-02T03:35:59.513Z,74.24
2022-09-02T03:36:59.465Z,74.38
2022-09-02T03:37:59.465Z,74.48
2022-09-02T03:38:59.451Z,74.58
2022-09-02T03:39:59.475Z,74.68
2022-09-02T03:40:59.425Z,74.58
2022-09-02T03:41:59.419Z,74.58
2022-09-02T03:43:00.575Z,74.58
2022-09-02T03:43:59.400Z,74.58
2022-09-02T03:44:59.400Z,74.58
2022-09-02T03:45:59.441Z,74.68
2022-09-02T03:46:59.372Z,74.58
2022-09-02T03:47:59.356Z,74.78
2022-09-02T03:48:59.341Z,74.68
2022-09-02T03:49:59.337Z,74.58
2022-09-02T03:50:59.319Z,74.54
2022-09-02T03:51:59.322Z,74.44
2022-09-02T03:52:59.328Z,74.38
2022-09-02T03:53:59.311Z,74.44
2022-09-02T03:54:59.239Z,74.68
2022-09-02T03:55:59.275Z,74.68
2022-09-02T03:56:59.264Z,74.78
2022-09-02T03:57:59.216Z,74.68
2022-09-02T03:58:59.206Z,74.68
2022-09-02T03:59:59.176Z,74.68
2022-09-02T04:00:59.172Z,74.88
2022-09-02T04:01:59.280Z,74.88
2022-09-02T04:02:59.268Z,74.78
2022-09-02T04:03:59.151Z,74.78
2022-09-02T04:04:59.129Z,74.98
2022-09-02T04:05:59.124Z,74.98
2022-09-02T04:06:59.109Z,74.88
2022-09-02T04:07:59.101Z,75.09
2022-09-02T04:08:59.097Z,74.98
2022-09-02T04:09:59.134Z,74.88
2022-09-02T04:10:59.060Z,74.98
2022-09-02T04:11:59.053Z,74.88
2022-09-02T04:12:59.044Z,75.09
2022-09-02T04:13:59.158Z,75.09
2022-09-02T04:14:59.024Z,75.09
2022-09-02T04:16:01.841Z,75.19
2022-09-02T04:16:58.997Z,75.19
2022-09-02T04:17:58.992Z,75.39
2022-09-02T04:18:58.998Z,75.52
2022-09-02T04:19:58.970Z,75.63
2022-09-02T04:20:58.956Z,75.73
2022-09-02T04:21:58.961Z,75.83
2022-09-02T04:22:58.932Z,75.73
2022-09-02T04:23:58.947Z,75.73
2022-09-02T04:24:58.915Z,75.83
2022-09-02T04:25:58.909Z,75.93
2022-09-02T04:27:03.856Z,75.93
2022-09-02T04:27:58.892Z,76.03
2022-09-02T04:28:58.897Z,76.03
2022-09-02T04:29:58.872Z,75.83
2022-09-02T04:30:58.895Z,75.83
2022-09-02T04:31:58.846Z,75.73
2022-09-02T04:32:58.833Z,75.63
2022-09-02T04:33:58.838Z,75.73
2022-09-02T04:34:58.807Z,75.73
2022-09-02T04:35:58.805Z,75.73
2022-09-02T04:36:58.805Z,75.63
2022-09-02T04:37:58.786Z,75.63
2022-09-02T04:38:58.795Z,75.63
2022-09-02T04:39:58.763Z,75.73
2022-09-02T04:40:58.752Z,75.83
2022-09-02T04:41:58.740Z,75.63
2022-09-02T04:42:58.734Z,75.83
2022-09-02T04:43:58.746Z,76.24
2022-09-02T04:44:58.745Z,76.24
2022-09-02T04:45:58.788Z,76.34
2022-09-02T04:46:58.685Z,76.34
2022-09-02T04:47:58.696Z,76.54
2022-09-02T04:48:58.709Z,76.44
2022-09-02T04:49:58.656Z,76.44
2022-09-02T04:50:58.641Z,76.44
2022-09-02T04:51:58.657Z,76.34
2022-09-02T04:52:58.620Z,76.44
2022-09-02T04:53:58.639Z,76.68
2022-09-02T04:54:58.601Z,76.68
2022-09-02T04:55:58.630Z,76.85
2022-09-02T04:56:58.582Z,76.64
2022-09-02T04:57:58.574Z,76.44
2022-09-02T04:58:58.595Z,76.34
2022-09-02T04:59:58.553Z,76.14
2022-09-02T05:00:58.565Z,75.93
2022-09-02T05:01:58.709Z,76.03
2022-09-02T05:02:58.579Z,76.03
2022-09-02T05:03:58.528Z,76.03
2022-09-02T05:04:58.522Z,75.93
2022-09-02T05:05:58.488Z,75.79
2022-09-02T05:06:58.473Z,75.79
2022-09-02T05:07:58.481Z,75.70
2022-09-02T05:08:58.459Z,75.39
2022-09-02T05:09:58.478Z,75.49
2022-09-02T05:10:58.446Z,75.83
2022-09-02T05:11:58.426Z,75.93
2022-09-02T05:12:58.423Z,75.83
2022-09-02T05:13:58.407Z,75.90
2022-09-02T05:14:58.410Z,75.79
2022-09-02T05:15:58.420Z,75.79
2022-09-02T05:16:58.373Z,75.90
2022-09-02T05:17:58.365Z,75.79
2022-09-02T05:18:58.363Z,75.70
2022-09-02T05:19:58.345Z,75.70
2022-09-02T05:20:58.341Z,75.49
2022-09-02T05:21:58.335Z,75.70
2022-09-02T05:22:58.309Z,75.70
2022-09-02T05:23:58.315Z,75.59
2022-09-02T05:24:58.290Z,75.70
2022-09-02T05:25:58.283Z,75.90
2022-09-02T05:26:58.266Z,75.90
2022-09-02T05:27:58.258Z,76.00
2022-09-02T05:28:58.260Z,76.00
2022-09-02T05:29:58.600Z,76.00
2022-09-02T05:30:58.295Z,75.90
2022-09-02T05:32:04.246Z,75.79
2022-09-02T05:32:58.217Z,75.79
2022-09-02T05:33:58.219Z,76.00
2022-09-02T05:34:59.914Z,76.40
2022-09-02T05:35:58.178Z,76.24
2022-09-02T05:36:58.171Z,76.40
2022-09-02T05:38:00.945Z,76.31
2022-09-02T05:38:58.158Z,76.40
2022-09-02T05:39:58.134Z,76.31
2022-09-02T05:40:58.169Z,76.31
2022-09-02T05:41:58.124Z,76.51
2022-09-02T05:42:58.100Z,76.61
2022-09-02T05:43:59.000Z,76.51
2022-09-02T05:44:58.090Z,76.00
2022-09-02T05:45:58.208Z,75.70
2022-09-02T05:46:58.058Z,75.79
2022-09-02T05:47:58.050Z,75.79
2022-09-02T05:48:58.058Z,75.86
2022-09-02T05:49:58.030Z,75.76
2022-09-02T05:50:58.613Z,75.66
2022-09-02T05:51:58.010Z,75.79
2022-09-02T05:52:57.993Z,75.70
2022-09-02T05:53:58.009Z,75.90
2022-09-02T05:54:57.987Z,75.79
2022-09-02T05:55:57.970Z,76.00
2022-09-02T05:56:57.948Z,76.10
2022-09-02T05:57:57.954Z,76.10
2022-09-02T05:58:57.956Z,76.00
2022-09-02T05:59:57.947Z,76.00
2022-09-02T06:00:57.912Z,76.00
2022-09-02T06:01:58.006Z,76.00
2022-09-02T06:02:57.988Z,76.00
2022-09-02T06:03:57.887Z,75.90
2022-09-02T06:04:57.876Z,75.96
2022-09-02T06:06:00.561Z,75.86
2022-09-02T06:06:57.861Z,75.96
2022-09-02T06:07:57.880Z,75.76
2022-09-02T06:08:57.827Z,75.66
2022-09-02T06:09:57.823Z,75.76
2022-09-02T06:10:57.812Z,75.66
2022-09-02T06:11:57.807Z,75.66
2022-09-02T06:12:57.807Z,75.86
2022-09-02T06:13:57.788Z,75.52
2022-09-02T06:14:57.766Z,75.32
2022-09-02T06:15:57.894Z,75.22
2022-09-02T06:16:57.757Z,75.01
2022-09-02T06:17:57.759Z,74.81
2022-09-02T06:18:57.725Z,74.71
2022-09-02T06:19:57.722Z,75.01
2022-09-02T06:20:57.712Z,75.32
2022-09-02T06:21:57.704Z,75.42
2022-09-02T06:22:57.710Z,75.42
2022-09-02T06:23:57.677Z,75.32
2022-09-02T06:24:57.681Z,75.12
2022-09-02T06:25:57.661Z,75.01
2022-09-02T06:26:57.643Z,75.08
2022-09-02T06:27:57.663Z,75.18
2022-09-02T06:28:57.624Z,74.57
2022-09-02T06:29:57.621Z,74.57
2022-09-02T06:30:57.686Z,74.48
2022-09-02T06:31:57.602Z,74.37
2022-09-02T06:32:57.610Z,74.77
2022-09-02T06:33:57.605Z,74.88
2022-09-02T06:34:57.562Z,74.98
2022-09-02T06:35:57.559Z,74.68
2022-09-02T06:36:57.571Z,74.54
2022-09-02T06:37:57.553Z,74.33
2022-09-02T06:38:57.521Z,74.24
2022-09-02T06:39:57.524Z,73.83
2022-09-02T06:40:57.499Z,73.90
2022-09-02T06:41:57.512Z,73.63
2022-09-02T06:42:57.482Z,73.83
2022-09-02T06:43:57.469Z,73.80
2022-09-02T06:44:57.466Z,73.59
2022-09-02T06:45:57.514Z,73.49
2022-09-02T06:46:57.445Z,73.49
2022-09-02T06:47:57.435Z,73.59
2022-09-02T06:48:57.414Z,73.69
2022-09-02T06:49:57.404Z,73.80
2022-09-02T06:50:57.388Z,73.69
2022-09-02T06:51:57.407Z,73.59
2022-09-02T06:52:57.369Z,73.36
2022-09-02T06:53:57.377Z,73.15
2022-09-02T06:54:57.352Z,72.85
2022-09-02T06:55:57.340Z,73.05
2022-09-02T06:56:57.370Z,72.92
2022-09-02T06:57:57.328Z,72.51
2022-09-02T06:58:57.307Z,72.41
2022-09-02T07:00:01.892Z,72.28
2022-09-02T07:00:57.370Z,71.67
2022-09-02T07:01:57.424Z,71.67
2022-09-02T07:02:57.277Z,71.17
2022-09-02T07:03:57.260Z,71.47
2022-09-02T07:04:57.775Z,71.53
2022-09-02T07:05:57.318Z,71.33
2022-09-02T07:06:57.855Z,71.33
2022-09-02T07:07:57.245Z,70.62
2022-09-02T07:08:57.211Z,70.89
2022-09-02T07:09:57.194Z,70.69
2022-09-02T07:10:57.187Z,70.36
2022-09-02T07:11:59.864Z,70.02
2022-09-02T07:12:57.199Z,69.11
2022-09-02T07:13:57.155Z,68.37
2022-09-02T07:14:57.138Z,67.74
2022-09-02T07:15:57.139Z,66.47
2022-09-02T07:16:57.164Z,65.53
2022-09-02T07:17:57.116Z,64.49
2022-09-02T07:18:57.112Z,63.42
2022-09-02T07:19:57.100Z,61.86
2022-09-02T07:20:57.087Z,60.27
2022-09-02T07:21:57.090Z,58.81
2022-09-02T07:22:57.121Z,57.35
2022-09-02T07:23:57.050Z,56.49
2022-09-02T07:24:57.039Z,54.97
2022-09-02T07:25:57.041Z,54.44
2022-09-02T07:26:57.037Z,54.22
2022-09-02T07:27:57.025Z,53.52
2022-09-02T07:28:57.008Z,53.39
2022-09-02T07:29:57.017Z,52.55
2022-09-02T07:30:59.832Z,52.02
2022-09-02T07:31:56.971Z,51.40
2022-09-02T07:32:56.957Z,50.18
2022-09-02T07:33:56.974Z,50.35
2022-09-02T07:34:56.947Z,49.48
2022-09-02T07:35:56.939Z,49.78
2022-09-02T07:37:01.856Z,51.29
2022-09-02T07:37:56.914Z,50.65
2022-09-02T07:38:56.892Z,49.93
2022-09-02T07:39:56.884Z,48.71
2022-09-02T07:40:57.340Z,48.47
2022-09-02T07:41:56.876Z,47.85
2022-09-02T07:43:59.472Z,46.09
2022-09-02T07:44:56.834Z,45.79
2022-09-02T07:45:56.871Z,45.78
2022-09-02T07:46:56.810Z,44.59
2022-09-02T07:47:56.806Z,44.19
2022-09-02T07:48:56.792Z,44.63
2022-09-02T07:50:56.798Z,50.74
2022-09-02T07:51:56.761Z,52.00
2022-09-02T07:52:56.769Z,53.12
2022-09-02T07:53:56.747Z,53.64
2022-09-02T07:54:56.761Z,54.27
2022-09-02T07:55:56.746Z,55.42
2022-09-02T07:56:56.712Z,55.69
2022-09-02T07:57:56.699Z,53.59
2022-09-02T07:58:56.705Z,53.49
2022-09-02T07:59:56.695Z,52.19
2022-09-02T08:00:56.749Z,51.70
2022-09-02T08:01:56.658Z,52.25
2022-09-02T08:02:56.761Z,52.87
2022-09-02T08:03:56.638Z,51.57
2022-09-02T08:04:56.633Z,49.58
2022-09-02T08:05:56.639Z,48.42
2022-09-02T08:06:56.608Z,47.47
2022-09-02T08:07:56.600Z,49.19
2022-09-02T08:08:56.591Z,46.79
2022-09-02T08:09:56.581Z,45.36
2022-09-02T08:10:56.624Z,44.32
2022-09-02T08:11:56.549Z,44.45
2022-09-02T08:12:56.549Z,44.24
2022-09-02T08:13:56.528Z,45.18
2022-09-02T08:14:56.548Z,46.93
2022-09-02T08:15:56.521Z,47.30
2022-09-02T08:16:56.543Z,50.27
2022-09-02T08:17:56.494Z,51.45
2022-09-02T08:18:56.485Z,52.99
2022-09-02T08:19:56.472Z,54.06
2022-09-02T08:20:56.507Z,55.62
2022-09-02T08:21:56.453Z,56.92
2022-09-02T08:23:05.840Z,57.62
2022-09-02T08:23:56.436Z,57.45
2022-09-02T08:24:56.440Z,57.15
2022-09-02T08:25:56.416Z,57.28
2022-09-02T08:26:56.408Z,58.37
2022-09-02T08:27:56.421Z,58.75
2022-09-02T08:28:56.382Z,56.39
2022-09-02T08:29:56.365Z,56.70
2022-09-02T08:30:56.384Z,56.57
2022-09-02T08:31:56.534Z,55.32
2022-09-02T08:32:56.362Z,53.94
2022-09-02T08:33:56.340Z,51.97
2022-09-02T08:34:56.322Z,50.20
2022-09-02T08:35:56.343Z,49.36
2022-09-02T08:36:57.085Z,48.86
2022-09-02T08:37:56.284Z,49.88
2022-09-02T08:38:56.298Z,50.31
2022-09-02T08:39:56.269Z,50.75
2022-09-02T08:40:56.330Z,51.27
2022-09-02T08:41:56.297Z,52.29
2022-09-02T08:42:56.244Z,52.51
2022-09-02T08:43:56.240Z,53.36
2022-09-02T08:44:56.233Z,54.29
2022-09-02T08:45:56.289Z,52.82
2022-09-02T08:46:56.213Z,54.14
2022-09-02T08:47:56.185Z,53.87
2022-09-02T08:48:56.187Z,54.29
2022-09-02T08:49:56.167Z,54.60
2022-09-02T08:50:56.178Z,55.49
2022-09-02T08:51:56.147Z,55.19
2022-09-02T08:52:56.138Z,53.42
2022-09-02T08:53:56.143Z,54.44
2022-09-02T08:54:56.122Z,54.85
2022-09-02T08:55:56.118Z,55.24
2022-09-02T08:56:56.102Z,55.44
2022-09-02T08:57:56.113Z,55.85
2022-09-02T08:58:56.698Z,55.55
2022-09-02T08:59:56.063Z,55.37
2022-09-02T09:00:56.136Z,54.70
2022-09-02T09:01:56.089Z,56.00
2022-09-02T09:02:56.035Z,56.50
2022-09-02T09:03:56.022Z,56.23
2022-09-02T09:04:56.011Z,56.60
2022-09-02T09:05:56.023Z,55.30
2022-09-02T09:06:55.994Z,55.30
2022-09-02T09:07:55.981Z,55.20
2022-09-02T09:08:55.973Z,54.70
2022-09-02T09:09:55.960Z,55.50
2022-09-02T09:10:55.975Z,56.20
2022-09-02T09:11:55.938Z,56.60
2022-09-02T09:12:55.933Z,55.60
2022-09-02T09:13:55.929Z,55.10
2022-09-02T09:14:55.918Z,55.30
2022-09-02T09:15:55.919Z,54.70
2022-09-02T09:16:56.048Z,55.00
2022-09-02T09:17:55.879Z,54.70
2022-09-02T09:18:55.871Z,54.93
2022-09-02T09:19:55.861Z,55.60
2022-09-02T09:20:55.869Z,54.90
2022-09-02T09:21:55.841Z,54.39
2022-09-02T09:22:55.830Z,54.43
2022-09-02T09:23:55.820Z,55.02
2022-09-02T09:24:55.813Z,55.75
2022-09-02T09:25:55.828Z,56.15
2022-09-02T09:26:55.791Z,55.95
2022-09-02T09:27:55.781Z,55.13
2022-09-02T09:28:55.767Z,53.92
2022-09-02T09:29:55.769Z,54.02
2022-09-02T09:30:55.755Z,53.02
2022-09-02T09:31:55.827Z,53.80
2022-09-02T09:32:55.735Z,53.09
2022-09-02T09:33:55.726Z,53.17
2022-09-02T09:34:55.738Z,53.77
2022-09-02T09:35:55.696Z,53.77
2022-09-02T09:36:55.694Z,52.87
2022-09-02T09:37:55.669Z,54.10
2022-09-02T09:38:55.676Z,54.70
2022-09-02T09:39:55.679Z,54.10
2022-09-02T09:40:55.662Z,54.39
2022-09-02T09:41:55.638Z,54.90
2022-09-02T09:42:55.703Z,56.10
2022-09-02T09:43:55.608Z,54.90
2022-09-02T09:44:55.622Z,54.10
2022-09-02T09:45:55.681Z,54.60
2022-09-02T09:46:55.584Z,54.39
2022-09-02T09:47:58.393Z,53.89
2022-09-02T09:48:55.560Z,54.00
2022-09-02T09:49:55.584Z,53.59
2022-09-02T09:50:55.554Z,53.59
2022-09-02T09:51:55.540Z,53.42
2022-09-02T09:52:55.522Z,53.42
2022-09-02T09:53:55.518Z,54.72
2022-09-02T09:54:55.526Z,54.32
2022-09-02T09:55:55.501Z,54.62
2022-09-02T09:56:55.495Z,55.22
2022-09-02T09:57:55.498Z,55.30
2022-09-02T09:58:55.458Z,54.10
2022-09-02T09:59:55.467Z,54.80
2022-09-02T10:00:55.453Z,54.17
2022-09-02T10:01:55.464Z,53.27
2022-09-02T10:02:55.418Z,53.17
2022-09-02T10:03:55.403Z,52.77
2022-09-02T10:04:55.524Z,53.37
2022-09-02T10:05:55.384Z,53.24
2022-09-02T10:06:55.380Z,53.55
2022-09-02T10:07:55.374Z,52.24
2022-09-02T10:08:55.355Z,52.44
2022-09-02T10:09:55.365Z,53.07
2022-09-02T10:10:55.335Z,54.17
2022-09-02T10:11:55.321Z,54.67
2022-09-02T10:12:55.316Z,52.47
2022-09-02T10:13:55.317Z,52.77
2022-09-02T10:14:55.323Z,52.87
2022-09-02T10:15:55.349Z,53.77
2022-09-02T10:16:55.339Z,52.47
2022-09-02T10:17:55.263Z,51.67
2022-09-02T10:18:55.261Z,52.57
2022-09-02T10:19:55.260Z,51.57
2022-09-02T10:21:55.224Z,51.69
2022-09-02T10:23:00.076Z,52.09
2022-09-02T10:23:55.209Z,53.30
2022-09-02T10:24:55.209Z,52.80
2022-09-02T10:25:55.188Z,52.42
2022-09-02T10:26:55.177Z,53.25
2022-09-02T10:27:55.161Z,53.64
2022-09-02T10:28:55.151Z,53.64
2022-09-02T10:29:55.173Z,53.85
2022-09-02T10:30:55.140Z,53.34
2022-09-02T10:31:55.181Z,53.95
2022-09-02T10:32:55.116Z,53.95
2022-09-02T10:33:55.094Z,53.64
2022-09-02T10:34:55.102Z,54.02
2022-09-02T10:35:55.097Z,54.52
2022-09-02T10:36:55.106Z,54.62
2022-09-02T10:37:55.072Z,54.32
2022-09-02T10:38:55.050Z,53.52
2022-09-02T10:39:55.065Z,53.22
2022-09-02T10:40:55.170Z,53.52
2022-09-02T10:41:55.022Z,52.52
2022-09-02T10:42:55.013Z,53.72
2022-09-02T10:43:57.569Z,53.02
2022-09-02T10:44:58.411Z,52.42
2022-09-02T10:45:54.973Z,52.82
2022-09-02T10:46:55.038Z,52.92
2022-09-02T10:47:54.968Z,52.72
2022-09-02T10:48:54.956Z,52.01
2022-09-02T10:49:54.949Z,51.51
2022-09-02T10:50:54.928Z,52.42
2022-09-02T10:51:54.908Z,52.22
2022-09-02T10:52:54.910Z,52.59
2022-09-02T10:53:54.892Z,52.89
2022-09-02T10:54:54.900Z,51.79
2022-09-02T10:55:54.870Z,49.99
2022-09-02T10:56:54.867Z,50.42
2022-09-02T10:57:54.852Z,50.11
2022-09-02T10:58:54.921Z,51.01
2022-09-02T10:59:54.829Z,49.41
2022-09-02T11:00:54.897Z,50.01
2022-09-02T11:01:54.828Z,50.71
2022-09-02T11:02:54.815Z,51.42
2022-09-02T11:03:54.834Z,51.01
2022-09-02T11:04:55.016Z,51.42
2022-09-02T11:05:54.783Z,51.51
2022-09-02T11:07:03.541Z,50.81
2022-09-02T11:07:54.784Z,50.62
2022-09-02T11:08:54.784Z,50.81
2022-09-02T11:09:54.745Z,50.92
2022-09-02T11:10:54.740Z,50.89
2022-09-02T11:11:57.053Z,50.89
2022-09-02T11:12:54.725Z,51.19
2022-09-02T11:13:54.711Z,51.46
2022-09-02T11:14:54.689Z,51.27
2022-09-02T11:15:54.755Z,50.46
2022-09-02T11:16:54.673Z,50.57
2022-09-02T11:17:54.653Z,50.67
2022-09-02T11:18:54.671Z,50.24
2022-09-02T11:19:54.653Z,50.24
2022-09-02T11:20:54.626Z,50.46
2022-09-02T11:21:54.607Z,50.76
2022-09-02T11:22:54.637Z,50.87
2022-09-02T11:23:54.647Z,51.39
2022-09-02T11:24:54.592Z,51.59
2022-09-02T11:25:54.576Z,51.69
2022-09-02T11:26:54.569Z,51.89
2022-09-02T11:27:54.556Z,52.19
2022-09-02T11:28:54.601Z,52.09
2022-09-02T11:29:54.545Z,51.67
2022-09-02T11:30:54.582Z,50.67
2022-09-02T11:31:54.501Z,49.44
2022-09-02T11:32:54.504Z,49.04
2022-09-02T11:34:53.475Z,49.82
2022-09-02T11:35:54.463Z,50.32
2022-09-02T11:36:54.454Z,48.44
2022-09-02T11:37:54.449Z,49.34
2022-09-02T11:38:54.471Z,49.54
2022-09-02T11:40:11.194Z,49.16
2022-09-02T11:41:54.474Z,46.56
2022-09-02T11:42:54.397Z,46.56
2022-09-02T11:44:54.382Z,46.48
2022-09-02T11:45:54.419Z,47.19
2022-09-02T11:46:54.414Z,47.19
2022-09-02T11:47:54.368Z,47.28
2022-09-02T11:48:54.428Z,47.28
2022-09-02T11:49:54.324Z,47.69
2022-09-02T11:50:54.316Z,48.08
2022-09-02T11:51:54.345Z,48.28
2022-09-02T11:52:54.292Z,47.88
2022-09-02T11:53:56.190Z,48.49
2022-09-02T11:54:54.278Z,48.58
2022-09-02T11:55:54.322Z,48.89
2022-09-02T11:56:54.286Z,48.79
2022-09-02T11:57:54.281Z,49.19
2022-09-02T11:58:54.302Z,48.86
2022-09-02T11:59:54.224Z,48.44
2022-09-02T12:00:54.267Z,49.07
2022-09-02T12:01:54.256Z,47.64
2022-09-02T12:02:54.229Z,48.42
2022-09-02T12:04:27.526Z,48.90
2022-09-02T12:05:02.306Z,47.89
2022-09-02T12:05:54.318Z,47.57
2022-09-02T12:06:54.306Z,46.19
2022-09-02T12:07:54.205Z,45.89
2022-09-02T12:08:54.175Z,46.72
2022-09-02T12:09:54.116Z,47.11
2022-09-02T12:10:54.137Z,47.72
2022-09-02T12:11:54.128Z,46.01
2022-09-02T12:12:54.079Z,45.62
2022-09-02T12:13:54.110Z,45.50
2022-09-02T12:14:54.260Z,45.69
2022-09-02T12:15:54.121Z,44.70
2022-09-02T12:16:54.068Z,45.00
2022-09-02T12:17:54.118Z,45.57
2022-09-02T12:18:54.079Z,45.17
2022-09-02T12:19:54.044Z,43.87
2022-09-02T12:20:54.001Z,44.78
2022-09-02T12:21:54.082Z,43.98
2022-09-02T12:22:53.974Z,44.55
2022-09-02T12:23:54.007Z,44.61
2022-09-02T12:24:53.954Z,44.95
2022-09-02T12:25:53.970Z,45.77
2022-09-02T12:26:53.940Z,46.27
2022-09-02T12:27:53.932Z,46.30
2022-09-02T12:28:53.928Z,45.37
2022-09-02T12:29:53.924Z,46.07
2022-09-02T12:30:53.928Z,46.19
2022-09-02T12:31:54.041Z,46.69
2022-09-02T12:32:53.911Z,47.31
2022-09-02T12:33:53.892Z,47.61
2022-09-02T12:34:53.866Z,48.02
2022-09-02T12:35:53.849Z,48.02
2022-09-02T12:36:53.841Z,47.14
2022-09-02T12:37:54.131Z,47.34
2022-09-02T12:38:53.814Z,47.64
2022-09-02T12:39:53.819Z,47.54
2022-09-02T12:40:53.854Z,47.74
2022-09-02T12:41:53.785Z,47.64
2022-09-02T12:42:53.775Z,47.84
2022-09-02T12:43:53.787Z,47.34
2022-09-02T12:44:53.749Z,47.94
2022-09-02T12:45:53.743Z,47.92
2022-09-02T12:46:53.860Z,46.81
2022-09-02T12:47:53.723Z,45.59
2022-09-02T12:48:53.725Z,45.47
2022-09-02T12:49:53.708Z,45.25
2022-09-02T12:50:53.711Z,44.95
2022-09-02T12:51:53.696Z,45.03
2022-09-02T12:52:53.686Z,44.83
2022-09-02T12:53:53.683Z,44.63
2022-09-02T12:54:53.651Z,44.65
2022-09-02T12:55:53.651Z,44.97
2022-09-02T12:56:53.623Z,45.17
2022-09-02T12:57:53.630Z,46.00